createdAt,value
2023-03-24T00:01:34.730Z,12.30
2023-03-24T00:04:01.461Z,12.30
2023-03-24T00:06:28.233Z,12.30
2023-03-24T00:08:54.855Z,12.30
2023-03-24T00:11:21.673Z,12.20
2023-03-24T00:13:50.726Z,12.20
2023-03-24T00:16:19.508Z,12.30
2023-03-24T00:18:50.286Z,12.30
2023-03-24T00:21:18.565Z,12.30
2023-03-24T00:23:47.912Z,12.30
2023-03-24T00:26:15.596Z,12.30
2023-03-24T00:28:47.939Z,12.30
2023-03-24T00:31:15.115Z,12.20
2023-03-24T00:33:42.568Z,12.20
2023-03-24T00:36:13.539Z,12.20
2023-03-24T00:38:40.861Z,12.20
2023-03-24T00:41:08.352Z,12.20
2023-03-24T00:43:35.084Z,12.20
2023-03-24T00:46:03.900Z,12.20
2023-03-24T00:48:30.878Z,12.10
2023-03-24T00:50:57.782Z,12.10
2023-03-24T00:53:26.067Z,12.10
2023-03-24T00:55:52.683Z,12.10
2023-03-24T00:58:19.773Z,12.10
2023-03-24T01:00:47.517Z,12.10
2023-03-24T01:03:14.693Z,12.10
2023-03-24T01:05:41.497Z,12.00
2023-03-24T01:08:08.667Z,12.00
2023-03-24T01:10:42.548Z,12.00
2023-03-24T01:13:10.392Z,12.00
2023-03-24T01:15:37.066Z,11.90
2023-03-24T01:18:04.186Z,11.90
2023-03-24T01:20:33.482Z,12.00
2023-03-24T01:23:01.257Z,12.00
2023-03-24T01:25:28.114Z,11.90
2023-03-24T01:27:54.750Z,11.90
2023-03-24T01:30:23.437Z,11.90
2023-03-24T01:32:50.198Z,11.80
2023-03-24T01:35:16.933Z,11.80
2023-03-24T01:37:43.614Z,11.80
2023-03-24T01:40:14.897Z,11.70
2023-03-24T01:42:41.492Z,11.70
2023-03-24T01:45:42.806Z,11.70
2023-03-24T01:48:31.292Z,11.70
2023-03-24T01:51:40.073Z,11.70
2023-03-24T01:54:25.705Z,11.80
2023-03-24T01:56:56.368Z,11.70
2023-03-24T01:59:25.580Z,11.70
2023-03-24T02:01:54.447Z,11.70
2023-03-24T02:04:21.116Z,11.80
2023-03-24T02:06:49.202Z,11.70
2023-03-24T02:09:15.815Z,11.80
2023-03-24T02:11:42.495Z,11.80
2023-03-24T02:14:09.363Z,11.80
2023-03-24T02:16:59.106Z,11.80
2023-03-24T02:19:52.492Z,11.80
2023-03-24T02:22:46.636Z,11.80
2023-03-24T02:25:38.145Z,11.80
2023-03-24T02:28:12.652Z,11.80
2023-03-24T02:30:47.754Z,11.90
2023-03-24T02:33:29.388Z,11.90
2023-03-24T02:36:21.747Z,11.90
2023-03-24T02:39:09.918Z,11.90
2023-03-24T02:41:42.382Z,11.90
2023-03-24T02:44:35.265Z,11.90
2023-03-24T02:47:05.880Z,11.90
2023-03-24T02:49:38.070Z,11.90
2023-03-24T02:52:22.434Z,11.90
2023-03-24T02:54:56.083Z,11.90
2023-03-24T02:57:32.076Z,11.90
2023-03-24T03:00:41.942Z,11.90
2023-03-24T03:03:10.906Z,11.90
2023-03-24T03:05:44.859Z,11.90
2023-03-24T03:08:12.855Z,11.90
2023-03-24T03:10:43.903Z,11.90
2023-03-24T03:13:26.164Z,11.80
2023-03-24T03:15:55.061Z,11.80
2023-03-24T03:18:32.150Z,11.80
2023-03-24T03:21:04.636Z,11.80
2023-03-24T03:23:40.460Z,11.80
2023-03-24T03:26:09.823Z,11.80
2023-03-24T03:28:38.185Z,11.70
2023-03-24T03:31:08.383Z,11.70
2023-03-24T03:33:38.706Z,11.70
2023-03-24T03:36:18.212Z,11.70
2023-03-24T03:39:03.379Z,11.70
2023-03-24T03:41:30.214Z,11.60
2023-03-24T03:43:56.814Z,11.60
2023-03-24T03:46:23.597Z,11.60
2023-03-24T03:48:50.223Z,11.60
2023-03-24T03:51:18.316Z,11.60
2023-03-24T03:53:50.576Z,11.60
2023-03-24T03:56:26.548Z,11.60
2023-03-24T03:58:53.405Z,11.60
2023-03-24T04:01:21.712Z,11.70
2023-03-24T04:04:20.182Z,11.60
2023-03-24T04:07:08.206Z,11.60
2023-03-24T04:09:40.946Z,11.60
2023-03-24T04:12:44.434Z,11.60
2023-03-24T04:15:30.602Z,11.60
2023-03-24T04:18:12.238Z,11.60
2023-03-24T04:21:04.729Z,11.60
2023-03-24T04:23:46.639Z,11.60
2023-03-24T04:26:16.468Z,11.60
2023-03-24T04:28:52.516Z,11.50
2023-03-24T04:31:26.035Z,11.50
2023-03-24T04:34:03.539Z,11.50
2023-03-24T04:36:44.265Z,11.50
2023-03-24T04:39:17.113Z,11.50
2023-03-24T04:41:43.871Z,11.50
2023-03-24T04:44:11.014Z,11.50
2023-03-24T04:46:37.805Z,11.50
2023-03-24T04:49:04.907Z,11.50
2023-03-24T04:51:31.595Z,11.50
2023-03-24T04:53:58.192Z,11.50
2023-03-24T04:56:36.201Z,11.50
2023-03-24T04:59:02.876Z,11.50
2023-03-24T05:01:30.588Z,11.50
2023-03-24T05:03:58.102Z,11.50
2023-03-24T05:06:25.372Z,11.50
2023-03-24T05:08:52.460Z,11.60
2023-03-24T05:11:20.360Z,11.60
2023-03-24T05:13:47.504Z,11.60
2023-03-24T05:16:14.415Z,11.60
2023-03-24T05:18:41.506Z,11.60
2023-03-24T05:21:08.217Z,11.60
2023-03-24T05:23:34.869Z,11.60
2023-03-24T05:26:01.519Z,11.60
2023-03-24T05:28:28.143Z,11.60
2023-03-24T05:30:54.800Z,11.60
2023-03-24T05:33:21.435Z,11.60
2023-03-24T05:35:48.243Z,11.70
2023-03-24T05:38:15.074Z,11.70
2023-03-24T05:40:41.705Z,11.70
2023-03-24T05:43:08.418Z,11.70
2023-03-24T05:45:35.391Z,11.70
2023-03-24T05:48:02.051Z,11.70
2023-03-24T05:50:28.706Z,11.80
2023-03-24T05:52:55.457Z,11.80
2023-03-24T05:55:22.295Z,11.80
2023-03-24T05:57:48.977Z,11.80
2023-03-24T06:00:18.810Z,11.80
2023-03-24T06:02:45.639Z,11.80
2023-03-24T06:05:12.538Z,11.90
2023-03-24T06:07:40.199Z,11.90
2023-03-24T06:10:07.723Z,11.90
2023-03-24T06:12:34.492Z,12.00
2023-03-24T06:15:01.122Z,11.90
2023-03-24T06:17:30.494Z,12.00
2023-03-24T06:20:04.838Z,12.10
2023-03-24T06:22:32.550Z,12.10
2023-03-24T06:24:59.228Z,12.20
2023-03-24T06:27:30.212Z,12.20
2023-03-24T06:29:59.968Z,12.30
2023-03-24T06:32:26.762Z,12.30
2023-03-24T06:34:53.613Z,12.40
2023-03-24T06:37:21.990Z,12.40
2023-03-24T06:39:48.691Z,12.50
2023-03-24T06:42:16.072Z,12.50
2023-03-24T06:44:43.243Z,12.50
2023-03-24T06:47:09.851Z,12.50
2023-03-24T06:49:37.467Z,12.50
2023-03-24T06:52:04.738Z,12.50
2023-03-24T06:54:31.538Z,12.50
2023-03-24T06:56:58.241Z,12.50
2023-03-24T06:59:25.056Z,12.50
2023-03-24T07:01:52.157Z,12.50
2023-03-24T07:04:19.308Z,12.40
2023-03-24T07:06:58.543Z,12.60
2023-03-24T07:09:33.039Z,12.60
2023-03-24T07:11:59.686Z,12.50
2023-03-24T07:14:26.617Z,12.50
2023-03-24T07:16:53.666Z,12.40
2023-03-24T07:19:20.778Z,12.40
2023-03-24T07:21:49.999Z,12.30
2023-03-24T07:24:17.532Z,12.30
2023-03-24T07:26:44.222Z,12.20
2023-03-24T07:29:11.619Z,12.20
2023-03-24T07:31:39.586Z,12.20
2023-03-24T07:34:06.533Z,12.10
2023-03-24T07:36:33.219Z,12.30
2023-03-24T07:38:59.856Z,12.30
2023-03-24T07:41:27.639Z,12.30
2023-03-24T07:43:54.339Z,12.40
2023-03-24T07:46:20.963Z,12.60
2023-03-24T07:48:47.628Z,12.60
2023-03-24T07:51:14.240Z,12.70
2023-03-24T07:53:40.855Z,12.80
2023-03-24T07:56:07.866Z,12.90
2023-03-24T07:58:34.500Z,12.90
2023-03-24T08:01:01.124Z,13.00
2023-03-24T08:03:28.467Z,13.10
2023-03-24T08:05:55.425Z,13.20
2023-03-24T08:08:22.168Z,13.10
2023-03-24T08:10:50.126Z,13.10
2023-03-24T08:13:17.053Z,13.20
2023-03-24T08:15:43.951Z,13.10
2023-03-24T08:18:10.970Z,13.20
2023-03-24T08:20:37.680Z,13.20
2023-03-24T08:23:04.949Z,13.20
2023-03-24T08:25:31.746Z,13.20
2023-03-24T08:27:58.393Z,13.10
2023-03-24T08:30:26.005Z,13.00
2023-03-24T08:32:54.316Z,12.90
2023-03-24T08:35:41.360Z,12.80
2023-03-24T08:38:08.788Z,12.70
2023-03-24T08:40:36.206Z,12.70
2023-03-24T08:43:04.102Z,12.70
2023-03-24T08:45:31.696Z,12.70
2023-03-24T08:48:00.373Z,12.80
2023-03-24T08:50:29.764Z,12.90
2023-03-24T08:52:56.835Z,12.90
2023-03-24T08:55:23.687Z,13.00
2023-03-24T08:57:50.845Z,13.00
2023-03-24T09:00:18.340Z,13.20
2023-03-24T09:02:46.955Z,13.20
2023-03-24T09:05:13.794Z,13.20
2023-03-24T09:07:40.475Z,13.20
2023-03-24T09:10:07.605Z,13.20
2023-03-24T09:12:34.722Z,13.20
2023-03-24T09:15:01.347Z,13.20
2023-03-24T09:17:28.101Z,13.30
2023-03-24T09:19:55.234Z,13.30
2023-03-24T09:22:21.868Z,13.30
2023-03-24T09:24:49.281Z,13.50
2023-03-24T09:27:18.989Z,13.60
2023-03-24T09:29:45.856Z,13.70
2023-03-24T09:32:12.691Z,13.80
2023-03-24T09:34:39.374Z,14.00
2023-03-24T09:37:06.152Z,14.10
2023-03-24T09:39:35.911Z,14.10
2023-03-24T09:42:04.963Z,14.20
2023-03-24T09:44:31.987Z,14.40
2023-03-24T09:47:27.820Z,14.50
2023-03-24T09:49:54.496Z,14.80
2023-03-24T09:52:27.883Z,14.80
2023-03-24T09:54:55.744Z,14.80
2023-03-24T09:57:24.023Z,14.60
2023-03-24T09:59:50.842Z,14.50
2023-03-24T10:02:19.223Z,14.20
2023-03-24T10:04:45.970Z,14.00
2023-03-24T10:07:35.888Z,13.70
2023-03-24T10:10:03.786Z,13.50
2023-03-24T10:12:33.477Z,13.30
2023-03-24T10:15:37.219Z,13.30
2023-03-24T10:18:31.207Z,13.50
2023-03-24T10:21:19.681Z,13.80
2023-03-24T10:24:07.919Z,14.00
2023-03-24T10:26:53.800Z,14.00
2023-03-24T10:29:34.069Z,13.90
2023-03-24T10:32:19.425Z,13.90
2023-03-24T10:34:47.186Z,13.70
2023-03-24T10:37:14.063Z,13.70
2023-03-24T10:39:44.894Z,13.80
2023-03-24T10:42:15.718Z,14.00
2023-03-24T10:44:42.391Z,13.90
2023-03-24T10:47:10.015Z,14.00
2023-03-24T10:49:37.647Z,14.00
2023-03-24T10:52:09.153Z,14.00
2023-03-24T10:54:36.773Z,14.10
2023-03-24T10:57:04.785Z,14.10
2023-03-24T10:59:50.690Z,14.40
2023-03-24T11:02:24.038Z,14.70
2023-03-24T11:05:16.956Z,14.80
2023-03-24T11:07:46.417Z,14.90
2023-03-24T11:10:17.105Z,15.00
2023-03-24T11:12:53.292Z,14.80
2023-03-24T11:15:22.534Z,14.70
2023-03-24T11:17:57.609Z,14.70
2023-03-24T11:20:29.544Z,15.00
2023-03-24T11:23:01.536Z,15.10
2023-03-24T11:25:30.650Z,15.20
2023-03-24T11:28:00.493Z,15.00
2023-03-24T11:30:34.089Z,15.00
2023-03-24T11:33:00.869Z,14.80
2023-03-24T11:35:40.890Z,14.70
2023-03-24T11:38:08.612Z,14.70
2023-03-24T11:40:35.290Z,14.50
2023-03-24T11:43:03.282Z,14.50
2023-03-24T11:45:40.784Z,14.30
2023-03-24T11:48:27.691Z,14.00
2023-03-24T11:50:55.359Z,13.80
2023-03-24T11:53:23.291Z,13.70
2023-03-24T11:56:13.006Z,13.50
2023-03-24T11:58:51.525Z,13.30
2023-03-24T12:01:21.283Z,13.30
2023-03-24T12:04:22.090Z,13.40
2023-03-24T12:07:15.010Z,13.60
2023-03-24T12:09:51.880Z,14.10
2023-03-24T12:12:25.852Z,14.40
2023-03-24T12:15:28.076Z,14.20
2023-03-24T12:18:29.876Z,14.30
2023-03-24T12:21:29.976Z,14.70
2023-03-24T12:24:02.379Z,15.00
2023-03-24T12:26:29.850Z,15.40
2023-03-24T12:29:32.290Z,15.50
2023-03-24T12:32:04.980Z,15.40
2023-03-24T12:35:09.550Z,15.50
2023-03-24T12:37:45.640Z,15.60
2023-03-24T12:40:30.955Z,15.90
2023-03-24T12:43:20.432Z,16.00
2023-03-24T12:45:49.877Z,16.40
2023-03-24T12:48:43.652Z,16.90
2023-03-24T12:51:25.197Z,17.20
2023-03-24T12:54:00.862Z,17.30
2023-03-24T12:56:49.295Z,17.10
2023-03-24T12:59:40.453Z,17.40
2023-03-24T13:02:32.860Z,17.70
2023-03-24T13:05:08.734Z,18.00
2023-03-24T13:07:39.194Z,17.90
2023-03-24T13:10:13.805Z,17.60
2023-03-24T13:12:46.801Z,17.50
2023-03-24T13:15:13.386Z,17.10
2023-03-24T13:18:01.287Z,17.20
2023-03-24T13:20:48.173Z,17.40
2023-03-24T13:23:32.673Z,17.60
2023-03-24T13:26:20.360Z,18.00
2023-03-24T13:29:17.672Z,17.90
2023-03-24T13:32:23.773Z,17.70
2023-03-24T13:35:21.655Z,17.80
2023-03-24T13:37:52.606Z,17.70
2023-03-24T13:40:29.339Z,17.60
2023-03-24T13:42:57.661Z,17.70
2023-03-24T13:45:27.462Z,17.80
2023-03-24T13:48:07.077Z,17.70
2023-03-24T13:50:34.358Z,17.50
2023-03-24T13:53:06.112Z,17.40
2023-03-24T13:55:36.679Z,17.50
2023-03-24T13:58:16.779Z,17.70
2023-03-24T14:01:12.053Z,17.80
2023-03-24T14:03:43.325Z,17.90
2023-03-24T14:06:10.955Z,18.00
2023-03-24T14:08:52.970Z,18.00
2023-03-24T14:11:32.139Z,18.00
2023-03-24T14:14:17.056Z,18.10
2023-03-24T14:16:43.842Z,18.20
2023-03-24T14:19:17.540Z,18.40
2023-03-24T14:21:44.258Z,18.30
2023-03-24T14:24:20.230Z,17.90
2023-03-24T14:26:46.804Z,17.40
2023-03-24T14:29:47.581Z,17.10
2023-03-24T14:32:21.579Z,16.90
2023-03-24T14:34:55.359Z,16.90
2023-03-24T14:37:22.956Z,16.70
2023-03-24T14:39:49.901Z,16.70
2023-03-24T14:42:31.675Z,16.80
2023-03-24T14:45:02.883Z,16.70
2023-03-24T14:47:34.104Z,16.60
2023-03-24T14:50:03.873Z,16.30
2023-03-24T14:53:00.236Z,16.10
2023-03-24T14:55:26.961Z,15.90
2023-03-24T14:58:10.890Z,15.90
2023-03-24T15:00:45.501Z,15.80
2023-03-24T15:03:28.492Z,15.80
2023-03-24T15:06:03.225Z,15.80
2023-03-24T15:08:29.935Z,15.90
2023-03-24T15:11:06.690Z,15.80
2023-03-24T15:13:43.128Z,15.70
2023-03-24T15:16:12.945Z,15.60
2023-03-24T15:21:34.253Z,15.50
2023-03-24T15:24:01.458Z,15.50
2023-03-24T15:26:29.439Z,15.60
2023-03-24T15:29:03.716Z,15.70
2023-03-24T15:31:30.598Z,15.80
2023-03-24T15:34:25.691Z,15.70
2023-03-24T15:36:57.338Z,15.90
2023-03-24T15:39:28.875Z,16.00
2023-03-24T15:41:55.856Z,15.90
2023-03-24T15:44:28.494Z,15.80
2023-03-24T15:46:59.250Z,15.70
2023-03-24T15:49:33.475Z,15.60
2023-03-24T15:52:00.980Z,15.50
2023-03-24T15:54:36.287Z,15.40
2023-03-24T15:57:37.112Z,15.20
2023-03-24T16:00:05.722Z,15.20
2023-03-24T16:02:46.385Z,15.10
2023-03-24T16:05:17.567Z,15.10
2023-03-24T16:07:44.171Z,15.00
2023-03-24T16:10:27.164Z,14.90
2023-03-24T16:12:53.766Z,14.80
2023-03-24T16:15:20.378Z,14.80
2023-03-24T16:17:48.361Z,14.60
2023-03-24T16:20:20.289Z,14.60
2023-03-24T16:22:46.950Z,14.50
2023-03-24T16:25:14.419Z,14.50
2023-03-24T16:27:41.160Z,14.50
2023-03-24T16:30:37.752Z,14.50
2023-03-24T16:33:04.760Z,14.50
2023-03-24T16:35:31.582Z,14.50
2023-03-24T16:37:58.357Z,14.50
2023-03-24T16:40:33.123Z,14.40
2023-03-24T16:43:02.049Z,14.40
2023-03-24T16:45:29.683Z,14.30
2023-03-24T16:47:56.820Z,14.30
2023-03-24T16:50:27.688Z,14.30
2023-03-24T16:52:54.321Z,14.20
2023-03-24T16:55:21.098Z,14.20
2023-03-24T16:57:47.697Z,14.20
2023-03-24T17:00:14.789Z,14.10
2023-03-24T17:02:46.350Z,14.10
2023-03-24T17:05:20.825Z,14.10
2023-03-24T17:07:47.520Z,14.10
2023-03-24T17:10:14.691Z,14.00
2023-03-24T17:12:44.906Z,14.00
2023-03-24T17:15:21.961Z,14.00
2023-03-24T17:17:48.768Z,14.10
2023-03-24T17:20:15.739Z,14.00
2023-03-24T17:22:43.326Z,14.00
2023-03-24T17:25:11.638Z,14.00
2023-03-24T17:27:38.407Z,14.00
2023-03-24T17:30:06.710Z,13.80
2023-03-24T17:32:33.735Z,13.60
2023-03-24T17:35:01.466Z,13.40
2023-03-24T17:37:31.348Z,13.20
2023-03-24T17:43:45.335Z,13.00
2023-03-24T17:46:12.048Z,12.80
2023-03-24T17:48:38.816Z,12.70
2023-03-24T17:51:05.924Z,12.70
2023-03-24T17:53:33.593Z,12.70
2023-03-24T17:56:07.481Z,12.60
2023-03-24T17:58:34.883Z,12.40
2023-03-24T18:01:08.285Z,12.30
2023-03-24T18:03:40.132Z,12.20
2023-03-24T18:06:09.086Z,12.10
2023-03-24T18:08:36.389Z,12.00
2023-03-24T18:11:06.997Z,12.00
2023-03-24T18:13:33.613Z,12.00
2023-03-24T18:16:13.284Z,12.00
2023-03-24T18:18:47.023Z,12.00
2023-03-24T18:21:13.643Z,12.00
2023-03-24T18:23:40.307Z,12.00
2023-03-24T18:26:08.194Z,12.00
2023-03-24T18:28:37.220Z,12.00
2023-03-24T18:31:10.668Z,12.00
2023-03-24T18:33:37.327Z,12.00
2023-03-24T18:36:05.588Z,12.00
2023-03-24T18:38:32.264Z,12.10
2023-03-24T18:41:05.794Z,12.20
2023-03-24T18:43:37.562Z,12.20
2023-03-24T18:46:05.550Z,12.20
2023-03-24T18:48:32.451Z,12.30
2023-03-24T18:50:59.115Z,12.30
2023-03-24T18:53:25.817Z,12.30
2023-03-24T18:55:52.603Z,12.20
2023-03-24T18:58:20.941Z,12.20
2023-03-24T19:00:49.163Z,12.00
2023-03-24T19:03:16.428Z,11.80
2023-03-24T19:05:43.520Z,11.60
2023-03-24T19:08:14.650Z,11.40
2023-03-24T19:10:44.759Z,11.30
2023-03-24T19:13:12.558Z,11.10
2023-03-24T19:15:39.860Z,11.00
2023-03-24T19:18:07.035Z,10.80
2023-03-24T19:20:35.232Z,10.60
2023-03-24T19:23:01.976Z,10.50
2023-03-24T19:25:28.955Z,10.40
2023-03-24T19:27:55.922Z,10.30
2023-03-24T19:30:22.660Z,10.20
2023-03-24T19:32:49.462Z,10.20
2023-03-24T19:35:16.528Z,10.10
2023-03-24T19:37:49.272Z,10.10
2023-03-24T19:40:16.833Z,10.00
2023-03-24T19:42:44.899Z,10.00
2023-03-24T19:45:12.883Z,10.00
2023-03-24T19:47:39.556Z,10.00
2023-03-24T19:50:07.485Z,10.10
2023-03-24T19:52:34.510Z,10.10
2023-03-24T19:55:01.161Z,10.20
2023-03-24T19:57:30.568Z,10.20
2023-03-24T19:59:57.445Z,10.20
2023-03-24T20:02:24.804Z,10.10
2023-03-24T20:04:52.031Z,10.00
2023-03-24T20:07:19.135Z,10.00
2023-03-24T20:09:46.428Z,9.90
2023-03-24T20:12:13.642Z,9.80
2023-03-24T20:14:40.439Z,9.70
2023-03-24T20:17:07.151Z,9.70
2023-03-24T20:19:36.142Z,9.70
2023-03-24T20:22:02.768Z,9.70
2023-03-24T20:24:29.624Z,9.70
2023-03-24T20:26:56.575Z,9.70
2023-03-24T20:29:23.256Z,9.70
2023-03-24T20:31:50.081Z,9.70
2023-03-24T20:34:17.208Z,9.60
2023-03-24T20:36:43.829Z,9.60
2023-03-24T20:39:10.856Z,9.50
2023-03-24T20:41:37.759Z,9.40
2023-03-24T20:44:04.778Z,9.40
2023-03-24T20:46:31.404Z,9.40
2023-03-24T20:48:58.256Z,9.40
2023-03-24T20:51:25.152Z,9.30
2023-03-24T20:53:52.032Z,9.30
2023-03-24T20:56:18.825Z,9.20
2023-03-24T20:58:45.833Z,9.30
2023-03-24T21:01:20.491Z,9.30
2023-03-24T21:03:47.883Z,9.20
2023-03-24T21:06:15.317Z,9.20
2023-03-24T21:08:44.579Z,9.20
2023-03-24T21:11:11.752Z,9.20
2023-03-24T21:13:38.375Z,9.20
2023-03-24T21:16:08.054Z,9.20
2023-03-24T21:18:36.236Z,9.10
2023-03-24T21:21:05.476Z,9.20
2023-03-24T21:23:34.162Z,9.20
2023-03-24T21:26:02.695Z,9.20
2023-03-24T21:28:30.921Z,9.20
2023-03-24T21:30:58.573Z,9.10
2023-03-24T21:33:25.462Z,9.10
2023-03-24T21:35:54.434Z,9.10
2023-03-24T21:38:21.065Z,9.10
2023-03-24T21:40:48.123Z,9.10
2023-03-24T21:43:14.921Z,9.10
2023-03-24T21:45:46.263Z,9.10
2023-03-24T21:48:14.051Z,9.20
2023-03-24T21:50:42.931Z,9.10
2023-03-24T21:53:15.387Z,9.10
2023-03-24T21:55:55.549Z,9.10
2023-03-24T21:58:22.882Z,9.10
2023-03-24T22:00:49.790Z,9.10
2023-03-24T22:03:16.754Z,9.10
2023-03-24T22:05:44.177Z,9.20
2023-03-24T22:08:12.130Z,9.20
2023-03-24T22:10:42.843Z,9.20
2023-03-24T22:13:10.423Z,9.20
2023-03-24T22:15:37.030Z,9.20
2023-03-24T22:18:03.806Z,9.10
2023-03-24T22:20:31.911Z,9.10
2023-03-24T22:23:03.153Z,9.10
2023-03-24T22:25:29.781Z,9.10
2023-03-24T22:27:56.388Z,9.10
2023-03-24T22:30:23.169Z,9.10
2023-03-24T22:32:49.920Z,9.10
2023-03-24T22:35:16.735Z,9.10
2023-03-24T22:37:43.411Z,9.10
2023-03-24T22:40:10.405Z,9.10
2023-03-24T22:42:37.251Z,9.10
2023-03-24T22:45:04.231Z,9.10
2023-03-24T22:47:30.874Z,9.20
2023-03-24T22:49:57.498Z,9.20
2023-03-24T22:52:24.132Z,9.20
2023-03-24T22:54:50.726Z,9.20
2023-03-24T22:57:18.581Z,9.20
2023-03-24T22:59:45.303Z,9.20
2023-03-24T23:02:12.021Z,9.20
2023-03-24T23:04:40.643Z,9.20
2023-03-24T23:07:07.695Z,9.30
2023-03-24T23:09:34.791Z,9.20
2023-03-24T23:12:01.427Z,9.20
2023-03-24T23:14:28.075Z,9.20
2023-03-24T23:16:56.139Z,9.30
2023-03-24T23:19:23.244Z,9.30
2023-03-24T23:21:49.879Z,9.20
2023-03-24T23:24:16.978Z,9.20
2023-03-24T23:26:43.910Z,9.20
2023-03-24T23:29:10.546Z,9.20
2023-03-24T23:31:37.258Z,9.20
2023-03-24T23:34:07.379Z,9.20
2023-03-24T23:36:34.179Z,9.10
2023-03-24T23:39:01.083Z,9.10
2023-03-24T23:41:27.711Z,9.10
2023-03-24T23:43:54.934Z,9.10
2023-03-24T23:46:21.995Z,9.10
2023-03-24T23:48:48.752Z,9.00
2023-03-24T23:51:15.636Z,9.00
2023-03-24T23:53:42.295Z,9.00
2023-03-24T23:56:09.441Z,8.90
2023-03-24T23:58:38.036Z,8.90
